sensor_id;sensor_type;location;lat;lon;timestamp;P1;durP1;ratioP1;P2;durP2;ratioP2
64457;SDS011;58438;51.200;7.252;2022-09-30T00:02:17;10.50;;;7.25;;
64457;SDS011;58438;51.200;7.252;2022-09-30T00:05:05;12.05;;;8.00;;
64457;SDS011;58438;51.200;7.252;2022-09-30T00:07:52;12.75;;;7.63;;
64457;SDS011;58438;51.200;7.252;2022-09-30T00:10:39;13.23;;;8.40;;
64457;SDS011;58438;51.200;7.252;2022-09-30T00:13:27;14.93;;;8.80;;
64457;SDS011;58438;51.200;7.252;2022-09-30T00:16:15;13.50;;;8.05;;
64457;SDS011;58438;51.200;7.252;2022-09-30T00:19:02;14.27;;;8.05;;
64457;SDS011;58438;51.200;7.252;2022-09-30T00:21:52;14.63;;;8.13;;
64457;SDS011;58438;51.200;7.252;2022-09-30T00:24:43;11.15;;;8.35;;
64457;SDS011;58438;51.200;7.252;2022-09-30T00:27:33;12.25;;;8.70;;
64457;SDS011;58438;51.200;7.252;2022-09-30T00:30:24;15.95;;;8.27;;
64457;SDS011;58438;51.200;7.252;2022-09-30T00:33:13;12.60;;;7.57;;
64457;SDS011;58438;51.200;7.252;2022-09-30T00:36:02;13.52;;;8.05;;
64457;SDS011;58438;51.200;7.252;2022-09-30T00:38:52;12.10;;;8.18;;
64457;SDS011;58438;51.200;7.252;2022-09-30T00:41:42;11.07;;;7.68;;
64457;SDS011;58438;51.200;7.252;2022-09-30T00:44:44;13.38;;;7.63;;
64457;SDS011;58438;51.200;7.252;2022-09-30T00:47:42;13.32;;;8.15;;
64457;SDS011;58438;51.200;7.252;2022-09-30T00:50:34;15.82;;;8.60;;
64457;SDS011;58438;51.200;7.252;2022-09-30T00:53:26;10.70;;;8.63;;
64457;SDS011;58438;51.200;7.252;2022-09-30T00:56:17;13.73;;;8.75;;
64457;SDS011;58438;51.200;7.252;2022-09-30T00:59:11;12.70;;;8.75;;
64457;SDS011;58438;51.200;7.252;2022-09-30T01:02:03;17.90;;;9.32;;
64457;SDS011;58438;51.200;7.252;2022-09-30T01:04:52;14.40;;;8.68;;
64457;SDS011;58438;51.200;7.252;2022-09-30T01:07:43;10.80;;;8.02;;
64457;SDS011;58438;51.200;7.252;2022-09-30T01:10:33;16.10;;;9.52;;
64457;SDS011;58438;51.200;7.252;2022-09-30T01:13:23;13.88;;;8.20;;
64457;SDS011;58438;51.200;7.252;2022-09-30T01:16:20;12.02;;;8.05;;
64457;SDS011;58438;51.200;7.252;2022-09-30T01:19:19;12.13;;;7.90;;
64457;SDS011;58438;51.200;7.252;2022-09-30T01:22:29;12.20;;;7.90;;
64457;SDS011;58438;51.200;7.252;2022-09-30T01:25:25;12.73;;;6.78;;
64457;SDS011;58438;51.200;7.252;2022-09-30T01:28:37;12.32;;;7.30;;
64457;SDS011;58438;51.200;7.252;2022-09-30T01:31:33;13.18;;;7.30;;
64457;SDS011;58438;51.200;7.252;2022-09-30T01:34:25;11.63;;;7.55;;
64457;SDS011;58438;51.200;7.252;2022-09-30T01:37:17;12.75;;;7.00;;
64457;SDS011;58438;51.200;7.252;2022-09-30T01:40:07;10.45;;;6.80;;
64457;SDS011;58438;51.200;7.252;2022-09-30T01:42:55;11.63;;;7.38;;
64457;SDS011;58438;51.200;7.252;2022-09-30T01:48:40;12.32;;;7.35;;
64457;SDS011;58438;51.200;7.252;2022-09-30T01:51:36;13.48;;;8.07;;
64457;SDS011;58438;51.200;7.252;2022-09-30T01:54:26;11.93;;;8.00;;
64457;SDS011;58438;51.200;7.252;2022-09-30T01:57:17;12.93;;;7.93;;
64457;SDS011;58438;51.200;7.252;2022-09-30T02:00:06;15.60;;;9.13;;
64457;SDS011;58438;51.200;7.252;2022-09-30T02:02:55;17.67;;;9.20;;
64457;SDS011;58438;51.200;7.252;2022-09-30T02:05:47;12.38;;;8.50;;
64457;SDS011;58438;51.200;7.252;2022-09-30T02:08:38;15.40;;;8.95;;
64457;SDS011;58438;51.200;7.252;2022-09-30T02:11:27;13.02;;;9.05;;
64457;SDS011;58438;51.200;7.252;2022-09-30T02:14:15;16.42;;;10.23;;
64457;SDS011;58438;51.200;7.252;2022-09-30T02:17:04;16.02;;;10.63;;
64457;SDS011;58438;51.200;7.252;2022-09-30T02:19:53;17.55;;;11.15;;
64457;SDS011;58438;51.200;7.252;2022-09-30T02:22:47;16.90;;;9.93;;
64457;SDS011;58438;51.200;7.252;2022-09-30T02:25:35;15.48;;;10.25;;
64457;SDS011;58438;51.200;7.252;2022-09-30T02:28:25;15.60;;;10.00;;
64457;SDS011;58438;51.200;7.252;2022-09-30T02:31:13;13.77;;;9.43;;
64457;SDS011;58438;51.200;7.252;2022-09-30T02:34:03;13.55;;;8.73;;
64457;SDS011;58438;51.200;7.252;2022-09-30T02:36:52;12.20;;;8.48;;
64457;SDS011;58438;51.200;7.252;2022-09-30T02:39:42;13.55;;;9.10;;
64457;SDS011;58438;51.200;7.252;2022-09-30T02:42:32;14.07;;;8.90;;
64457;SDS011;58438;51.200;7.252;2022-09-30T02:45:20;13.10;;;9.30;;
64457;SDS011;58438;51.200;7.252;2022-09-30T02:48:10;15.02;;;9.75;;
64457;SDS011;58438;51.200;7.252;2022-09-30T02:51:02;13.23;;;9.15;;
64457;SDS011;58438;51.200;7.252;2022-09-30T02:53:54;15.50;;;9.43;;
64457;SDS011;58438;51.200;7.252;2022-09-30T02:56:47;13.52;;;8.82;;
64457;SDS011;58438;51.200;7.252;2022-09-30T02:59:37;13.07;;;8.10;;
64457;SDS011;58438;51.200;7.252;2022-09-30T03:02:25;13.82;;;8.38;;
64457;SDS011;58438;51.200;7.252;2022-09-30T03:05:13;16.15;;;9.27;;
64457;SDS011;58438;51.200;7.252;2022-09-30T03:08:02;12.00;;;8.75;;
64457;SDS011;58438;51.200;7.252;2022-09-30T03:10:49;15.50;;;8.57;;
64457;SDS011;58438;51.200;7.252;2022-09-30T03:13:58;14.30;;;8.45;;
64457;SDS011;58438;51.200;7.252;2022-09-30T03:16:53;11.60;;;7.60;;
64457;SDS011;58438;51.200;7.252;2022-09-30T03:19:50;12.35;;;8.57;;
64457;SDS011;58438;51.200;7.252;2022-09-30T03:22:52;13.02;;;9.02;;
64457;SDS011;58438;51.200;7.252;2022-09-30T03:25:46;16.30;;;8.32;;
64457;SDS011;58438;51.200;7.252;2022-09-30T03:28:37;13.82;;;9.55;;
64457;SDS011;58438;51.200;7.252;2022-09-30T03:31:28;13.80;;;9.00;;
64457;SDS011;58438;51.200;7.252;2022-09-30T03:34:20;14.00;;;8.93;;
64457;SDS011;58438;51.200;7.252;2022-09-30T03:37:10;12.38;;;9.20;;
64457;SDS011;58438;51.200;7.252;2022-09-30T03:39:59;13.32;;;8.57;;
64457;SDS011;58438;51.200;7.252;2022-09-30T03:42:49;14.43;;;8.90;;
64457;SDS011;58438;51.200;7.252;2022-09-30T03:45:38;11.95;;;8.35;;
64457;SDS011;58438;51.200;7.252;2022-09-30T03:48:28;13.68;;;8.10;;
64457;SDS011;58438;51.200;7.252;2022-09-30T03:51:18;13.55;;;8.90;;
64457;SDS011;58438;51.200;7.252;2022-09-30T03:54:06;13.32;;;8.77;;
64457;SDS011;58438;51.200;7.252;2022-09-30T03:56:54;14.60;;;8.30;;
64457;SDS011;58438;51.200;7.252;2022-09-30T03:59:41;15.07;;;9.02;;
64457;SDS011;58438;51.200;7.252;2022-09-30T04:02:28;14.55;;;8.95;;
64457;SDS011;58438;51.200;7.252;2022-09-30T04:05:17;15.25;;;9.57;;
64457;SDS011;58438;51.200;7.252;2022-09-30T04:08:05;15.40;;;9.65;;
64457;SDS011;58438;51.200;7.252;2022-09-30T04:10:52;15.07;;;8.57;;
64457;SDS011;58438;51.200;7.252;2022-09-30T04:13:40;13.63;;;9.32;;
64457;SDS011;58438;51.200;7.252;2022-09-30T04:16:27;13.10;;;8.57;;
64457;SDS011;58438;51.200;7.252;2022-09-30T04:19:14;12.88;;;7.75;;
64457;SDS011;58438;51.200;7.252;2022-09-30T04:22:03;13.95;;;9.35;;
64457;SDS011;58438;51.200;7.252;2022-09-30T04:24:50;12.20;;;8.52;;
64457;SDS011;58438;51.200;7.252;2022-09-30T04:27:37;11.68;;;8.13;;
64457;SDS011;58438;51.200;7.252;2022-09-30T04:30:27;12.00;;;8.45;;
64457;SDS011;58438;51.200;7.252;2022-09-30T04:33:18;14.85;;;8.90;;
64457;SDS011;58438;51.200;7.252;2022-09-30T04:36:05;14.20;;;9.05;;
64457;SDS011;58438;51.200;7.252;2022-09-30T04:38:53;15.43;;;9.48;;
64457;SDS011;58438;51.200;7.252;2022-09-30T04:41:41;16.00;;;9.75;;
64457;SDS011;58438;51.200;7.252;2022-09-30T04:44:29;14.73;;;9.13;;
64457;SDS011;58438;51.200;7.252;2022-09-30T04:47:15;12.07;;;8.60;;
64457;SDS011;58438;51.200;7.252;2022-09-30T04:50:03;16.27;;;10.05;;
64457;SDS011;58438;51.200;7.252;2022-09-30T04:52:51;14.55;;;9.75;;
64457;SDS011;58438;51.200;7.252;2022-09-30T04:55:42;14.45;;;9.20;;
64457;SDS011;58438;51.200;7.252;2022-09-30T04:58:29;14.65;;;9.60;;
64457;SDS011;58438;51.200;7.252;2022-09-30T05:01:21;17.52;;;10.43;;
64457;SDS011;58438;51.200;7.252;2022-09-30T05:04:08;15.82;;;10.82;;
64457;SDS011;58438;51.200;7.252;2022-09-30T05:06:56;15.00;;;10.40;;
64457;SDS011;58438;51.200;7.252;2022-09-30T05:09:44;19.23;;;12.40;;
64457;SDS011;58438;51.200;7.252;2022-09-30T05:12:33;14.55;;;9.77;;
64457;SDS011;58438;51.200;7.252;2022-09-30T05:15:20;17.40;;;10.55;;
64457;SDS011;58438;51.200;7.252;2022-09-30T05:18:07;14.02;;;10.32;;
64457;SDS011;58438;51.200;7.252;2022-09-30T05:20:55;17.48;;;10.80;;
64457;SDS011;58438;51.200;7.252;2022-09-30T05:23:43;15.27;;;10.30;;
64457;SDS011;58438;51.200;7.252;2022-09-30T05:26:30;15.98;;;9.85;;
64457;SDS011;58438;51.200;7.252;2022-09-30T05:29:19;21.73;;;11.02;;
64457;SDS011;58438;51.200;7.252;2022-09-30T05:32:06;20.10;;;10.90;;
64457;SDS011;58438;51.200;7.252;2022-09-30T05:34:53;22.20;;;13.10;;
64457;SDS011;58438;51.200;7.252;2022-09-30T05:37:41;17.88;;;12.05;;
64457;SDS011;58438;51.200;7.252;2022-09-30T05:40:27;22.00;;;12.10;;
64457;SDS011;58438;51.200;7.252;2022-09-30T05:43:14;25.58;;;12.95;;
64457;SDS011;58438;51.200;7.252;2022-09-30T05:46:03;17.20;;;11.38;;
64457;SDS011;58438;51.200;7.252;2022-09-30T05:48:51;21.90;;;12.85;;
64457;SDS011;58438;51.200;7.252;2022-09-30T05:51:38;21.33;;;12.07;;
64457;SDS011;58438;51.200;7.252;2022-09-30T05:54:26;19.38;;;12.48;;
64457;SDS011;58438;51.200;7.252;2022-09-30T05:57:13;19.33;;;11.38;;
64457;SDS011;58438;51.200;7.252;2022-09-30T06:00:00;19.23;;;11.10;;
64457;SDS011;58438;51.200;7.252;2022-09-30T06:02:51;19.02;;;11.32;;
64457;SDS011;58438;51.200;7.252;2022-09-30T06:05:38;19.85;;;11.43;;
64457;SDS011;58438;51.200;7.252;2022-09-30T06:08:25;20.35;;;11.55;;
64457;SDS011;58438;51.200;7.252;2022-09-30T06:11:13;20.33;;;11.65;;
64457;SDS011;58438;51.200;7.252;2022-09-30T06:14:00;17.60;;;11.48;;
64457;SDS011;58438;51.200;7.252;2022-09-30T06:16:47;18.00;;;11.18;;
64457;SDS011;58438;51.200;7.252;2022-09-30T06:19:36;18.30;;;11.10;;
64457;SDS011;58438;51.200;7.252;2022-09-30T06:22:23;14.13;;;9.35;;
64457;SDS011;58438;51.200;7.252;2022-09-30T06:25:10;18.20;;;10.27;;
64457;SDS011;58438;51.200;7.252;2022-09-30T06:27:57;17.50;;;11.18;;
64457;SDS011;58438;51.200;7.252;2022-09-30T06:30:45;16.20;;;9.90;;
64457;SDS011;58438;51.200;7.252;2022-09-30T06:33:32;17.73;;;11.00;;
64457;SDS011;58438;51.200;7.252;2022-09-30T06:36:21;17.98;;;10.45;;
64457;SDS011;58438;51.200;7.252;2022-09-30T06:39:08;16.60;;;10.63;;
64457;SDS011;58438;51.200;7.252;2022-09-30T06:41:58;17.17;;;10.95;;
64457;SDS011;58438;51.200;7.252;2022-09-30T06:44:45;17.25;;;10.90;;
64457;SDS011;58438;51.200;7.252;2022-09-30T06:47:38;20.60;;;11.85;;
64457;SDS011;58438;51.200;7.252;2022-09-30T06:50:38;18.23;;;11.15;;
64457;SDS011;58438;51.200;7.252;2022-09-30T06:53:36;18.58;;;10.93;;
64457;SDS011;58438;51.200;7.252;2022-09-30T06:56:24;16.65;;;10.52;;
64457;SDS011;58438;51.200;7.252;2022-09-30T06:59:12;18.73;;;11.77;;
64457;SDS011;58438;51.200;7.252;2022-09-30T07:02:01;18.73;;;10.85;;
64457;SDS011;58438;51.200;7.252;2022-09-30T07:04:49;17.83;;;10.75;;
64457;SDS011;58438;51.200;7.252;2022-09-30T07:07:37;21.42;;;11.35;;
64457;SDS011;58438;51.200;7.252;2022-09-30T07:10:26;18.25;;;10.85;;
64457;SDS011;58438;51.200;7.252;2022-09-30T07:13:14;16.67;;;10.93;;
64457;SDS011;58438;51.200;7.252;2022-09-30T07:16:01;17.85;;;11.48;;
64457;SDS011;58438;51.200;7.252;2022-09-30T07:18:49;17.88;;;11.18;;
64457;SDS011;58438;51.200;7.252;2022-09-30T07:21:36;19.73;;;11.75;;
64457;SDS011;58438;51.200;7.252;2022-09-30T07:24:23;16.20;;;10.95;;
64457;SDS011;58438;51.200;7.252;2022-09-30T07:27:12;21.13;;;11.23;;
64457;SDS011;58438;51.200;7.252;2022-09-30T07:30:00;16.02;;;10.90;;
64457;SDS011;58438;51.200;7.252;2022-09-30T07:33:00;16.20;;;10.68;;
64457;SDS011;58438;51.200;7.252;2022-09-30T07:35:49;18.92;;;11.48;;
64457;SDS011;58438;51.200;7.252;2022-09-30T07:38:37;17.27;;;10.68;;
64457;SDS011;58438;51.200;7.252;2022-09-30T07:41:26;20.80;;;11.68;;
64457;SDS011;58438;51.200;7.252;2022-09-30T07:44:15;14.82;;;10.13;;
64457;SDS011;58438;51.200;7.252;2022-09-30T07:47:03;17.45;;;10.35;;
64457;SDS011;58438;51.200;7.252;2022-09-30T07:49:50;14.27;;;9.43;;
64457;SDS011;58438;51.200;7.252;2022-09-30T07:52:37;13.88;;;9.23;;
64457;SDS011;58438;51.200;7.252;2022-09-30T07:55:25;12.55;;;9.18;;
64457;SDS011;58438;51.200;7.252;2022-09-30T07:58:12;17.67;;;9.70;;
64457;SDS011;58438;51.200;7.252;2022-09-30T08:01:00;16.90;;;9.23;;
64457;SDS011;58438;51.200;7.252;2022-09-30T08:03:51;16.42;;;8.82;;
64457;SDS011;58438;51.200;7.252;2022-09-30T08:06:38;12.95;;;8.68;;
64457;SDS011;58438;51.200;7.252;2022-09-30T08:09:27;13.65;;;8.50;;
64457;SDS011;58438;51.200;7.252;2022-09-30T08:12:15;13.40;;;8.25;;
64457;SDS011;58438;51.200;7.252;2022-09-30T08:15:02;12.93;;;8.32;;
64457;SDS011;58438;51.200;7.252;2022-09-30T08:17:52;14.93;;;8.20;;
64457;SDS011;58438;51.200;7.252;2022-09-30T08:20:39;20.00;;;9.32;;
64457;SDS011;58438;51.200;7.252;2022-09-30T08:23:27;13.13;;;8.23;;
64457;SDS011;58438;51.200;7.252;2022-09-30T08:26:14;10.35;;;7.35;;
64457;SDS011;58438;51.200;7.252;2022-09-30T08:29:02;14.27;;;8.57;;
64457;SDS011;58438;51.200;7.252;2022-09-30T08:31:49;9.60;;;7.78;;
64457;SDS011;58438;51.200;7.252;2022-09-30T08:34:38;12.23;;;8.07;;
64457;SDS011;58438;51.200;7.252;2022-09-30T08:37:25;12.90;;;7.78;;
64457;SDS011;58438;51.200;7.252;2022-09-30T08:40:16;10.93;;;7.43;;
64457;SDS011;58438;51.200;7.252;2022-09-30T08:43:10;10.20;;;7.32;;
64457;SDS011;58438;51.200;7.252;2022-09-30T08:46:00;12.10;;;7.60;;
64457;SDS011;58438;51.200;7.252;2022-09-30T08:48:54;13.40;;;7.72;;
64457;SDS011;58438;51.200;7.252;2022-09-30T08:51:48;13.48;;;7.95;;
64457;SDS011;58438;51.200;7.252;2022-09-30T08:54:37;12.25;;;7.38;;
64457;SDS011;58438;51.200;7.252;2022-09-30T08:57:31;13.57;;;7.57;;
64457;SDS011;58438;51.200;7.252;2022-09-30T09:00:20;10.70;;;6.80;;
64457;SDS011;58438;51.200;7.252;2022-09-30T09:03:08;11.57;;;7.55;;
64457;SDS011;58438;51.200;7.252;2022-09-30T09:06:00;12.27;;;7.47;;
64457;SDS011;58438;51.200;7.252;2022-09-30T09:08:55;12.77;;;7.65;;
64457;SDS011;58438;51.200;7.252;2022-09-30T09:11:47;9.95;;;7.75;;
64457;SDS011;58438;51.200;7.252;2022-09-30T09:14:43;10.00;;;6.78;;
64457;SDS011;58438;51.200;7.252;2022-09-30T09:17:38;10.95;;;6.85;;
64457;SDS011;58438;51.200;7.252;2022-09-30T09:20:52;11.52;;;7.30;;
64457;SDS011;58438;51.200;7.252;2022-09-30T09:23:40;10.23;;;7.13;;
64457;SDS011;58438;51.200;7.252;2022-09-30T09:26:31;9.35;;;6.75;;
64457;SDS011;58438;51.200;7.252;2022-09-30T09:29:31;11.27;;;7.18;;
64457;SDS011;58438;51.200;7.252;2022-09-30T09:32:23;12.63;;;7.40;;
64457;SDS011;58438;51.200;7.252;2022-09-30T09:35:12;9.98;;;7.28;;
64457;SDS011;58438;51.200;7.252;2022-09-30T09:38:01;11.70;;;7.07;;
64457;SDS011;58438;51.200;7.252;2022-09-30T09:41:10;10.13;;;6.35;;
64457;SDS011;58438;51.200;7.252;2022-09-30T09:44:05;11.05;;;6.78;;
64457;SDS011;58438;51.200;7.252;2022-09-30T09:46:58;11.10;;;6.65;;
64457;SDS011;58438;51.200;7.252;2022-09-30T09:49:51;9.98;;;6.28;;
64457;SDS011;58438;51.200;7.252;2022-09-30T09:52:45;11.20;;;6.70;;
64457;SDS011;58438;51.200;7.252;2022-09-30T09:55:34;10.73;;;5.63;;
64457;SDS011;58438;51.200;7.252;2022-09-30T09:58:22;11.63;;;6.57;;
64457;SDS011;58438;51.200;7.252;2022-09-30T10:01:18;12.77;;;6.85;;
64457;SDS011;58438;51.200;7.252;2022-09-30T10:04:18;10.68;;;6.22;;
64457;SDS011;58438;51.200;7.252;2022-09-30T10:07:11;12.65;;;6.72;;
64457;SDS011;58438;51.200;7.252;2022-09-30T10:10:06;10.30;;;5.93;;
64457;SDS011;58438;51.200;7.252;2022-09-30T10:12:54;8.20;;;5.97;;
64457;SDS011;58438;51.200;7.252;2022-09-30T10:15:42;11.98;;;5.93;;
64457;SDS011;58438;51.200;7.252;2022-09-30T10:18:32;7.90;;;6.35;;
64457;SDS011;58438;51.200;7.252;2022-09-30T10:21:21;10.52;;;6.95;;
64457;SDS011;58438;51.200;7.252;2022-09-30T10:24:17;10.88;;;6.93;;
64457;SDS011;58438;51.200;7.252;2022-09-30T10:27:04;8.73;;;6.03;;
64457;SDS011;58438;51.200;7.252;2022-09-30T10:30:06;11.68;;;7.03;;
64457;SDS011;58438;51.200;7.252;2022-09-30T10:32:53;12.77;;;6.88;;
64457;SDS011;58438;51.200;7.252;2022-09-30T10:35:49;7.63;;;6.10;;
64457;SDS011;58438;51.200;7.252;2022-09-30T10:38:44;9.68;;;6.32;;
64457;SDS011;58438;51.200;7.252;2022-09-30T10:41:33;11.13;;;6.78;;
64457;SDS011;58438;51.200;7.252;2022-09-30T10:44:21;9.48;;;6.05;;
64457;SDS011;58438;51.200;7.252;2022-09-30T10:47:12;9.93;;;6.47;;
64457;SDS011;58438;51.200;7.252;2022-09-30T10:50:01;10.93;;;6.75;;
64457;SDS011;58438;51.200;7.252;2022-09-30T10:52:53;10.40;;;6.82;;
64457;SDS011;58438;51.200;7.252;2022-09-30T10:55:41;8.82;;;6.63;;
64457;SDS011;58438;51.200;7.252;2022-09-30T10:58:35;11.25;;;6.80;;
64457;SDS011;58438;51.200;7.252;2022-09-30T11:01:27;10.63;;;6.47;;
64457;SDS011;58438;51.200;7.252;2022-09-30T11:04:20;8.10;;;6.13;;
64457;SDS011;58438;51.200;7.252;2022-09-30T11:07:10;7.65;;;5.80;;
64457;SDS011;58438;51.200;7.252;2022-09-30T11:10:02;7.97;;;5.90;;
64457;SDS011;58438;51.200;7.252;2022-09-30T11:12:54;9.45;;;5.78;;
64457;SDS011;58438;51.200;7.252;2022-09-30T11:15:49;10.65;;;5.50;;
64457;SDS011;58438;51.200;7.252;2022-09-30T11:18:42;9.40;;;6.05;;
64457;SDS011;58438;51.200;7.252;2022-09-30T11:21:33;9.32;;;6.00;;
64457;SDS011;58438;51.200;7.252;2022-09-30T11:24:24;7.43;;;5.45;;
64457;SDS011;58438;51.200;7.252;2022-09-30T11:27:17;10.82;;;5.60;;
64457;SDS011;58438;51.200;7.252;2022-09-30T11:30:08;8.18;;;5.20;;
64457;SDS011;58438;51.200;7.252;2022-09-30T11:33:03;7.82;;;5.45;;
64457;SDS011;58438;51.200;7.252;2022-09-30T11:35:55;10.98;;;5.60;;
64457;SDS011;58438;51.200;7.252;2022-09-30T11:38:55;7.93;;;5.63;;
64457;SDS011;58438;51.200;7.252;2022-09-30T11:41:46;9.82;;;5.22;;
64457;SDS011;58438;51.200;7.252;2022-09-30T11:44:40;9.93;;;5.63;;
64457;SDS011;58438;51.200;7.252;2022-09-30T11:47:33;8.15;;;5.88;;
64457;SDS011;58438;51.200;7.252;2022-09-30T11:53:14;5.32;;;4.13;;
64457;SDS011;58438;51.200;7.252;2022-09-30T11:56:05;7.00;;;4.63;;
64457;SDS011;58438;51.200;7.252;2022-09-30T11:58:57;7.68;;;4.90;;
64457;SDS011;58438;51.200;7.252;2022-09-30T12:01:48;6.60;;;4.45;;
64457;SDS011;58438;51.200;7.252;2022-09-30T12:04:37;7.05;;;4.13;;
64457;SDS011;58438;51.200;7.252;2022-09-30T12:07:29;7.68;;;4.40;;
64457;SDS011;58438;51.200;7.252;2022-09-30T12:10:18;5.40;;;3.85;;
64457;SDS011;58438;51.200;7.252;2022-09-30T12:13:08;6.28;;;3.85;;
64457;SDS011;58438;51.200;7.252;2022-09-30T12:15:57;4.43;;;3.80;;
64457;SDS011;58438;51.200;7.252;2022-09-30T12:18:52;5.25;;;3.47;;
64457;SDS011;58438;51.200;7.252;2022-09-30T12:21:44;6.50;;;3.67;;
64457;SDS011;58438;51.200;7.252;2022-09-30T12:24:34;4.47;;;3.05;;
64457;SDS011;58438;51.200;7.252;2022-09-30T12:27:24;4.03;;;3.20;;
64457;SDS011;58438;51.200;7.252;2022-09-30T12:30:13;5.25;;;3.55;;
64457;SDS011;58438;51.200;7.252;2022-09-30T12:33:15;3.60;;;2.70;;
64457;SDS011;58438;51.200;7.252;2022-09-30T12:42:23;6.50;;;3.80;;
64457;SDS011;58438;51.200;7.252;2022-09-30T12:45:19;5.22;;;3.15;;
64457;SDS011;58438;51.200;7.252;2022-09-30T12:48:10;4.53;;;3.33;;
64457;SDS011;58438;51.200;7.252;2022-09-30T12:51:02;5.35;;;3.25;;
64457;SDS011;58438;51.200;7.252;2022-09-30T12:53:51;5.47;;;3.28;;
64457;SDS011;58438;51.200;7.252;2022-09-30T12:56:43;5.13;;;3.15;;
64457;SDS011;58438;51.200;7.252;2022-09-30T12:59:34;5.55;;;3.42;;
64457;SDS011;58438;51.200;7.252;2022-09-30T13:02:26;6.53;;;3.28;;
64457;SDS011;58438;51.200;7.252;2022-09-30T13:08:36;6.45;;;3.60;;
64457;SDS011;58438;51.200;7.252;2022-09-30T13:11:32;9.02;;;4.10;;
64457;SDS011;58438;51.200;7.252;2022-09-30T13:14:22;6.55;;;3.75;;
64457;SDS011;58438;51.200;7.252;2022-09-30T13:17:23;5.72;;;4.20;;
64457;SDS011;58438;51.200;7.252;2022-09-30T13:23:24;4.25;;;3.78;;
64457;SDS011;58438;51.200;7.252;2022-09-30T13:26:31;5.95;;;4.18;;
64457;SDS011;58438;51.200;7.252;2022-09-30T13:29:27;5.35;;;3.25;;
64457;SDS011;58438;51.200;7.252;2022-09-30T13:32:33;4.85;;;3.67;;
64457;SDS011;58438;51.200;7.252;2022-09-30T13:35:29;4.85;;;3.78;;
64457;SDS011;58438;51.200;7.252;2022-09-30T13:38:17;5.45;;;3.63;;
64457;SDS011;58438;51.200;7.252;2022-09-30T13:41:07;5.70;;;3.85;;
64457;SDS011;58438;51.200;7.252;2022-09-30T13:44:03;7.82;;;3.97;;
64457;SDS011;58438;51.200;7.252;2022-09-30T13:46:53;7.57;;;3.60;;
64457;SDS011;58438;51.200;7.252;2022-09-30T13:49:48;5.57;;;4.05;;
64457;SDS011;58438;51.200;7.252;2022-09-30T13:52:38;6.18;;;3.55;;
64457;SDS011;58438;51.200;7.252;2022-09-30T13:55:27;7.32;;;3.95;;
64457;SDS011;58438;51.200;7.252;2022-09-30T13:58:22;8.52;;;3.83;;
64457;SDS011;58438;51.200;7.252;2022-09-30T14:01:17;5.65;;;3.65;;
64457;SDS011;58438;51.200;7.252;2022-09-30T14:04:17;7.63;;;4.72;;
64457;SDS011;58438;51.200;7.252;2022-09-30T14:07:11;6.68;;;3.90;;
64457;SDS011;58438;51.200;7.252;2022-09-30T14:10:05;5.50;;;3.80;;
64457;SDS011;58438;51.200;7.252;2022-09-30T14:13:02;6.03;;;3.97;;
64457;SDS011;58438;51.200;7.252;2022-09-30T14:15:59;4.88;;;3.45;;
64457;SDS011;58438;51.200;7.252;2022-09-30T14:19:05;6.95;;;4.30;;
64457;SDS011;58438;51.200;7.252;2022-09-30T14:21:56;9.20;;;3.95;;
64457;SDS011;58438;51.200;7.252;2022-09-30T14:24:48;6.82;;;3.65;;
64457;SDS011;58438;51.200;7.252;2022-09-30T14:27:40;4.57;;;3.90;;
64457;SDS011;58438;51.200;7.252;2022-09-30T14:30:33;3.80;;;2.95;;
64457;SDS011;58438;51.200;7.252;2022-09-30T14:33:24;5.22;;;3.67;;
64457;SDS011;58438;51.200;7.252;2022-09-30T14:36:14;5.95;;;3.80;;
64457;SDS011;58438;51.200;7.252;2022-09-30T14:39:01;9.20;;;3.10;;
64457;SDS011;58438;51.200;7.252;2022-09-30T14:41:52;3.75;;;2.63;;
64457;SDS011;58438;51.200;7.252;2022-09-30T14:44:40;4.35;;;2.60;;
64457;SDS011;58438;51.200;7.252;2022-09-30T14:47:29;5.68;;;3.08;;
64457;SDS011;58438;51.200;7.252;2022-09-30T14:50:18;4.80;;;2.90;;
64457;SDS011;58438;51.200;7.252;2022-09-30T14:53:21;4.07;;;2.80;;
64457;SDS011;58438;51.200;7.252;2022-09-30T14:56:17;3.28;;;2.90;;
64457;SDS011;58438;51.200;7.252;2022-09-30T14:59:14;5.75;;;2.70;;
64457;SDS011;58438;51.200;7.252;2022-09-30T15:02:03;6.18;;;2.92;;
64457;SDS011;58438;51.200;7.252;2022-09-30T15:04:57;3.17;;;2.20;;
64457;SDS011;58438;51.200;7.252;2022-09-30T15:07:46;4.00;;;2.42;;
64457;SDS011;58438;51.200;7.252;2022-09-30T15:10:34;4.05;;;2.90;;
64457;SDS011;58438;51.200;7.252;2022-09-30T15:13:22;3.97;;;2.83;;
64457;SDS011;58438;51.200;7.252;2022-09-30T15:16:22;5.63;;;2.45;;
64457;SDS011;58438;51.200;7.252;2022-09-30T15:19:11;5.68;;;2.20;;
64457;SDS011;58438;51.200;7.252;2022-09-30T15:22:01;4.47;;;2.30;;
64457;SDS011;58438;51.200;7.252;2022-09-30T15:24:49;4.03;;;2.30;;
64457;SDS011;58438;51.200;7.252;2022-09-30T15:27:37;2.65;;;2.30;;
64457;SDS011;58438;51.200;7.252;2022-09-30T15:30:26;2.55;;;2.20;;
64457;SDS011;58438;51.200;7.252;2022-09-30T15:33:17;3.85;;;2.45;;
64457;SDS011;58438;51.200;7.252;2022-09-30T15:36:06;4.35;;;2.47;;
64457;SDS011;58438;51.200;7.252;2022-09-30T15:38:54;3.80;;;2.30;;
64457;SDS011;58438;51.200;7.252;2022-09-30T15:41:41;3.78;;;2.25;;
64457;SDS011;58438;51.200;7.252;2022-09-30T15:44:37;3.42;;;2.25;;
64457;SDS011;58438;51.200;7.252;2022-09-30T16:01:15;4.88;;;2.33;;
64457;SDS011;58438;51.200;7.252;2022-09-30T16:04:20;5.00;;;2.10;;
64457;SDS011;58438;51.200;7.252;2022-09-30T16:07:15;3.08;;;1.80;;
64457;SDS011;58438;51.200;7.252;2022-09-30T16:10:14;3.35;;;1.85;;
64457;SDS011;58438;51.200;7.252;2022-09-30T16:13:12;2.45;;;1.80;;
64457;SDS011;58438;51.200;7.252;2022-09-30T16:16:00;1.95;;;1.75;;
64457;SDS011;58438;51.200;7.252;2022-09-30T16:18:50;5.30;;;1.80;;
64457;SDS011;58438;51.200;7.252;2022-09-30T16:21:42;3.73;;;2.10;;
64457;SDS011;58438;51.200;7.252;2022-09-30T16:24:43;5.15;;;2.22;;
64457;SDS011;58438;51.200;7.252;2022-09-30T16:27:31;5.93;;;2.30;;
64457;SDS011;58438;51.200;7.252;2022-09-30T16:30:19;3.70;;;2.53;;
64457;SDS011;58438;51.200;7.252;2022-09-30T16:33:08;4.78;;;2.17;;
64457;SDS011;58438;51.200;7.252;2022-09-30T16:36:00;4.65;;;2.50;;
64457;SDS011;58438;51.200;7.252;2022-09-30T16:38:47;3.13;;;2.20;;
64457;SDS011;58438;51.200;7.252;2022-09-30T16:41:34;2.95;;;2.10;;
64457;SDS011;58438;51.200;7.252;2022-09-30T16:44:22;3.85;;;2.50;;
64457;SDS011;58438;51.200;7.252;2022-09-30T16:47:13;4.05;;;2.60;;
64457;SDS011;58438;51.200;7.252;2022-09-30T16:50:01;4.18;;;2.40;;
64457;SDS011;58438;51.200;7.252;2022-09-30T16:52:50;4.55;;;2.55;;
64457;SDS011;58438;51.200;7.252;2022-09-30T16:55:37;3.67;;;2.75;;
64457;SDS011;58438;51.200;7.252;2022-09-30T16:58:24;2.92;;;2.10;;
64457;SDS011;58438;51.200;7.252;2022-09-30T17:01:14;6.38;;;2.30;;
64457;SDS011;58438;51.200;7.252;2022-09-30T17:04:02;3.65;;;2.13;;
64457;SDS011;58438;51.200;7.252;2022-09-30T17:06:49;2.90;;;2.08;;
64457;SDS011;58438;51.200;7.252;2022-09-30T17:09:37;5.93;;;2.50;;
64457;SDS011;58438;51.200;7.252;2022-09-30T17:12:24;4.88;;;2.47;;
64457;SDS011;58438;51.200;7.252;2022-09-30T17:15:12;4.30;;;2.63;;
64457;SDS011;58438;51.200;7.252;2022-09-30T17:18:02;5.53;;;2.42;;
64457;SDS011;58438;51.200;7.252;2022-09-30T17:20:51;3.50;;;2.42;;
64457;SDS011;58438;51.200;7.252;2022-09-30T17:23:38;6.00;;;2.92;;
64457;SDS011;58438;51.200;7.252;2022-09-30T17:26:26;3.95;;;2.40;;
64457;SDS011;58438;51.200;7.252;2022-09-30T17:29:13;4.40;;;2.47;;
64457;SDS011;58438;51.200;7.252;2022-09-30T17:32:18;4.65;;;2.58;;